Terminal Aerodrome Forecast
Issued by NWS Sterling, VA

Current Version | Previous Version | Graphics & Text | Print | Product List | Glossary On
Versions: 1 2 3 4 5 6 7 8 9 10 11 12 13 14 15 16 17 18 19 20 21 22
000
FTUS41 KLWX 241430 AAA
TAFIAD
TAF AMD
KIAD 241430Z 2415/2518 VRB03KT P6SM SCT200
     FM251100 20007KT P6SM SCT200
     FM251500 20011KT P6SM FEW200=

USA.gov is the U.S. government's official web portal to all federal, state and local government web resources and services.